ENFL/FRO METAR and TAF weather

Enter ICAO airport designator
Station Type Date Time Source
ENFL METAR 2019/04/18 20:50 UTC NOAA

ENFL 182050Z 08007KT CAVOK 09/04 Q1037


Station Type Date Time Source
ENFL Decoded METAR 2019/04/18 20:50 UTC NOAA

Floro, Norway (ENFL) 61-35N 005-02E 9M
Apr 18, 2019 - 04:50 PM EDT / 2019.04.18 2050 UTC
Wind: from the E (080 degrees) at 8 MPH (7 KT):0
Visibility: greater than 7 mile(s):0
Temperature: 48 F (9 C)
Dew Point: 39 F (4 C)
Relative Humidity: 70%
Pressure (altimeter): 30.62 in. Hg (1037 hPa)
ob: ENFL 182050Z 08007KT CAVOK 09/04 Q1037
cycle: 21

Station Type Date Time Source
ENFL TAF 2010/02/05 07:50 UTC NOAA

METAR ENFL 050750Z 16019KT 140V200 9999 FEW015 SCT030 BKN055 03/M03 Q1011

Example: see airport list